Time;durP1;ratioP1;P1;durP2;ratioP2;P2;SDS_P1;SDS_P2;PMS_P1;PMS_P2;Temp;Humidity;BMP_temperature;BMP_pressure;BME280_temperature;BME280_humidity;BME280_pressure;Samples;Min_cycle;Max_cycle;Signal;HPM_P1;HPM_P2
2021/11/01 00:01:20;;;;;;;20.98;17.58;;;;;;;;;;5060965;28;20021;-68
2021/11/01 00:03:46;;;;;;;20.15;18.00;;;;;;;;;;5055806;28;20059;-68
2021/11/01 00:06:11;;;;;;;21.52;18.85;;;;;;;;;;5072910;28;20473;-67
2021/11/01 00:08:37;;;;;;;20.73;18.48;;;;;;;;;;5073872;28;20090;-68
2021/11/01 00:11:02;;;;;;;19.63;17.23;;;;;;;;;;5056195;28;20021;-67
2021/11/01 00:13:28;;;;;;;21.08;17.50;;;;;;;;;;5075283;28;20081;-68
2021/11/01 00:15:53;;;;;;;20.48;16.90;;;;;;;;;;5075542;28;20025;-68
2021/11/01 00:18:18;;;;;;;19.92;17.20;;;;;;;;;;5039137;28;20495;-67
2021/11/01 00:20:43;;;;;;;20.33;17.08;;;;;;;;;;5070401;28;20028;-68
2021/11/01 00:23:09;;;;;;;19.52;17.23;;;;;;;;;;5072892;28;20032;-67
2021/11/01 00:25:34;;;;;;;20.92;17.48;;;;;;;;;;5073263;28;20028;-68
2021/11/01 00:28:00;;;;;;;18.83;16.83;;;;;;;;;;5071978;28;20025;-67
2021/11/01 00:30:25;;;;;;;18.55;16.58;;;;;;;;;;5073349;28;20455;-68
2021/11/01 00:32:51;;;;;;;19.20;16.88;;;;;;;;;;5055050;28;20036;-68
2021/11/01 00:35:16;;;;;;;18.83;16.92;;;;;;;;;;5075264;28;20029;-67
2021/11/01 00:37:41;;;;;;;20.52;16.02;;;;;;;;;;5054531;28;20032;-68
2021/11/01 00:40:07;;;;;;;17.88;15.70;;;;;;;;;;5076568;28;20027;-68
2021/11/01 00:42:32;;;;;;;18.38;16.33;;;;;;;;;;5090144;28;20039;-68
2021/11/01 00:44:57;;;;;;;20.67;17.02;;;;;;;;;;5063718;28;20071;-68
2021/11/01 00:47:23;;;;;;;18.55;16.13;;;;;;;;;;5038619;28;20051;-68
2021/11/01 00:49:49;;;;;;;20.05;16.38;;;;;;;;;;5038909;28;20162;-68
2021/11/01 00:52:19;;;;;;;18.73;16.73;;;;;;;;;;5055320;28;20040;-68
2021/11/01 00:54:44;;;;;;;17.75;15.73;;;;;;;;;;5078184;28;20689;-68
2021/11/01 00:57:10;;;;;;;18.27;16.13;;;;;;;;;;5082615;28;20063;-69
2021/11/01 00:59:35;;;;;;;19.48;16.45;;;;;;;;;;5055856;28;20028;-69
2021/11/01 01:02:00;;;;;;;17.23;15.30;;;;;;;;;;5072737;28;20024;-68
2021/11/01 01:04:26;;;;;;;19.23;15.65;;;;;;;;;;5071836;28;20039;-67
2021/11/01 01:06:51;;;;;;;19.13;16.23;;;;;;;;;;5072576;28;20431;-67
2021/11/01 01:09:17;;;;;;;18.00;16.08;;;;;;;;;;5091407;28;20066;-67
2021/11/01 01:11:42;;;;;;;17.75;15.07;;;;;;;;;;5054767;28;20384;-68
2021/11/01 01:14:07;;;;;;;16.60;14.80;;;;;;;;;;5054957;28;20051;-67
2021/11/01 01:16:39;;;;;;;17.38;15.32;;;;;;;;;;5073575;28;20043;-67
2021/11/01 01:19:06;;;;;;;18.17;14.82;;;;;;;;;;5073621;28;20107;-68
2021/11/01 01:24:15;;;;;;;19.02;16.25;;;;;;;;;;5076463;28;20034;-68
2021/11/01 01:26:41;;;;;;;18.33;15.05;;;;;;;;;;5058880;28;20115;-67
2021/11/01 01:29:07;;;;;;;17.48;15.00;;;;;;;;;;5054058;28;20108;-67
2021/11/01 01:31:32;;;;;;;18.05;14.85;;;;;;;;;;5088735;28;20480;-67
2021/11/01 01:33:59;;;;;;;17.90;15.90;;;;;;;;;;5053910;28;20055;-67
2021/11/01 01:36:24;;;;;;;17.40;15.27;;;;;;;;;;5053972;28;20020;-67
2021/11/01 01:38:50;;;;;;;17.58;15.57;;;;;;;;;;5071731;28;20381;-67
2021/11/01 01:41:23;;;;;;;19.15;15.32;;;;;;;;;;5091633;28;20024;-67
2021/11/01 01:43:52;;;;;;;18.67;15.35;;;;;;;;;;5078121;28;20020;-67
2021/11/01 01:46:18;;;;;;;18.58;15.48;;;;;;;;;;5053632;28;20098;-68
2021/11/01 01:48:43;;;;;;;17.83;14.60;;;;;;;;;;5084071;28;20456;-68
2021/11/01 01:51:09;;;;;;;15.35;13.70;;;;;;;;;;5071074;28;20422;-68
2021/11/01 01:53:35;;;;;;;16.00;13.85;;;;;;;;;;5040769;28;20020;-68
2021/11/01 01:56:00;;;;;;;17.23;15.10;;;;;;;;;;5052249;28;20028;-68
2021/11/01 01:58:28;;;;;;;17.65;14.65;;;;;;;;;;5060508;28;20021;-69
2021/11/01 02:01:09;;;;;;;18.17;14.15;;;;;;;;;;5074516;28;20419;-68
2021/11/01 02:03:39;;;;;;;17.05;14.98;;;;;;;;;;5071439;28;20031;-68
2021/11/01 02:06:04;;;;;;;18.35;15.45;;;;;;;;;;5057405;28;20102;-69
2021/11/01 02:08:30;;;;;;;17.33;14.38;;;;;;;;;;5072392;28;20202;-69
2021/11/01 02:11:02;;;;;;;15.38;13.60;;;;;;;;;;5075628;28;20020;-69
2021/11/01 02:13:29;;;;;;;17.33;14.90;;;;;;;;;;5071745;28;20024;-69
2021/11/01 02:15:58;;;;;;;16.33;14.25;;;;;;;;;;5071292;28;20028;-69
2021/11/01 02:18:23;;;;;;;16.02;14.32;;;;;;;;;;5053691;28;20061;-69
2021/11/01 02:20:54;;;;;;;16.17;14.48;;;;;;;;;;5067485;28;20028;-68
2021/11/01 02:23:23;;;;;;;17.10;15.15;;;;;;;;;;5062603;28;20031;-69
2021/11/01 02:25:51;;;;;;;16.52;14.05;;;;;;;;;;5071781;28;20064;-66
2021/11/01 02:28:19;;;;;;;16.58;14.77;;;;;;;;;;5072798;28;20029;-68
2021/11/01 02:30:45;;;;;;;17.50;15.10;;;;;;;;;;5087668;28;20055;-69
2021/11/01 02:33:12;;;;;;;16.38;14.63;;;;;;;;;;5079657;28;20027;-69
2021/11/01 02:35:38;;;;;;;17.45;14.57;;;;;;;;;;5097897;28;20480;-69
2021/11/01 02:38:05;;;;;;;16.73;14.02;;;;;;;;;;5091943;28;20514;-70
2021/11/01 02:40:31;;;;;;;17.25;14.18;;;;;;;;;;5055826;28;20492;-68
2021/11/01 02:42:57;;;;;;;17.98;14.38;;;;;;;;;;5106162;28;20501;-69
2021/11/01 02:45:22;;;;;;;18.17;14.50;;;;;;;;;;5094158;28;20115;-69
2021/11/01 02:47:47;;;;;;;17.17;15.13;;;;;;;;;;5090963;28;20387;-67
2021/11/01 02:50:14;;;;;;;17.35;13.73;;;;;;;;;;5097227;28;20031;-68
2021/11/01 02:52:40;;;;;;;17.70;14.68;;;;;;;;;;5084047;28;20596;-68
2021/11/01 02:55:06;;;;;;;16.70;14.10;;;;;;;;;;5086520;28;20024;-68
2021/11/01 02:57:32;;;;;;;16.42;14.65;;;;;;;;;;5071310;28;20031;-68
2021/11/01 02:59:57;;;;;;;17.48;14.80;;;;;;;;;;5094203;28;20016;-68
2021/11/01 03:02:22;;;;;;;15.35;13.43;;;;;;;;;;5064485;28;20027;-69
2021/11/01 03:04:48;;;;;;;16.80;14.88;;;;;;;;;;5102896;28;20116;-67
2021/11/01 03:07:14;;;;;;;19.15;15.55;;;;;;;;;;5101111;28;20028;-67
2021/11/01 03:09:41;;;;;;;15.77;14.05;;;;;;;;;;5105013;28;20043;-68
2021/11/01 03:12:08;;;;;;;17.10;14.77;;;;;;;;;;5095153;28;20020;-68
2021/11/01 03:14:45;;;;;;;16.30;14.52;;;;;;;;;;5095905;28;20065;-69
2021/11/01 03:17:12;;;;;;;17.90;14.75;;;;;;;;;;5056481;28;20036;-66
2021/11/01 03:19:39;;;;;;;15.93;13.30;;;;;;;;;;5083919;28;20028;-68
2021/11/01 03:22:05;;;;;;;18.42;14.50;;;;;;;;;;5114077;28;20024;-67
2021/11/01 03:24:33;;;;;;;16.98;14.88;;;;;;;;;;5077903;28;20028;-68
2021/11/01 03:26:58;;;;;;;16.25;14.45;;;;;;;;;;5094594;28;20073;-68
2021/11/01 03:29:23;;;;;;;19.05;15.13;;;;;;;;;;5083806;28;20049;-68
2021/11/01 03:31:49;;;;;;;16.38;14.57;;;;;;;;;;5073230;28;20138;-68
2021/11/01 03:34:14;;;;;;;20.10;14.85;;;;;;;;;;5057172;28;20111;-67
2021/11/01 03:36:40;;;;;;;18.05;15.13;;;;;;;;;;5060982;28;20081;-68
2021/11/01 03:39:08;;;;;;;16.88;15.07;;;;;;;;;;5062979;28;20032;-68
2021/11/01 03:41:34;;;;;;;15.73;13.98;;;;;;;;;;5082875;28;20029;-67
2021/11/01 03:44:08;;;;;;;15.45;13.60;;;;;;;;;;5056040;28;20166;-68
2021/11/01 03:46:54;;;;;;;17.48;14.52;;;;;;;;;;5088359;28;20032;-68
2021/11/01 03:49:21;;;;;;;16.70;14.32;;;;;;;;;;5090070;28;20047;-68
2021/11/01 03:54:15;;;;;;;16.17;13.50;;;;;;;;;;5073614;28;20032;-68
2021/11/01 03:56:42;;;;;;;15.93;12.60;;;;;;;;;;5056503;28;20119;-68
2021/11/01 03:59:07;;;;;;;13.68;12.10;;;;;;;;;;5078896;28;20026;-68
2021/11/01 04:01:37;;;;;;;14.32;12.82;;;;;;;;;;5074618;28;20024;-68
2021/11/01 04:04:02;;;;;;;14.88;13.38;;;;;;;;;;5074077;28;20085;-68
2021/11/01 04:06:28;;;;;;;13.82;12.20;;;;;;;;;;5065350;28;20115;-69
2021/11/01 04:08:56;;;;;;;14.38;12.65;;;;;;;;;;5075139;28;20023;-68
2021/11/01 04:11:21;;;;;;;13.48;12.07;;;;;;;;;;5093660;28;20028;-68
2021/11/01 04:13:46;;;;;;;14.95;13.35;;;;;;;;;;5076244;28;20023;-68
2021/11/01 04:16:14;;;;;;;14.10;12.63;;;;;;;;;;5078062;28;20492;-68
2021/11/01 04:18:52;;;;;;;13.93;12.40;;;;;;;;;;5047439;28;20673;-68
2021/11/01 04:21:17;;;;;;;14.35;12.52;;;;;;;;;;5065039;28;20024;-68
2021/11/01 04:23:42;;;;;;;15.98;13.13;;;;;;;;;;5064060;28;20024;-68
2021/11/01 04:26:09;;;;;;;15.10;13.50;;;;;;;;;;5073377;28;20123;-68
2021/11/01 04:28:34;;;;;;;14.70;12.85;;;;;;;;;;5075099;28;20027;-68
2021/11/01 04:31:10;;;;;;;16.20;12.60;;;;;;;;;;5083136;28;20049;-69
2021/11/01 04:33:36;;;;;;;13.88;10.90;;;;;;;;;;5057255;28;20094;-67
2021/11/01 04:36:01;;;;;;;13.48;11.40;;;;;;;;;;5073240;28;20028;-67
2021/11/01 04:38:42;;;;;;;12.75;10.68;;;;;;;;;;5072437;28;20029;-68
2021/11/01 04:41:18;;;;;;;13.90;11.13;;;;;;;;;;5069689;28;20032;-67
2021/11/01 04:54:53;;;;;;;16.80;13.57;;;;;;;;;;5073484;28;20070;-69
2021/11/01 04:57:19;;;;;;;16.33;14.48;;;;;;;;;;5061601;28;20874;-69
2021/11/01 04:59:44;;;;;;;15.02;12.77;;;;;;;;;;5071734;28;20024;-69
2021/11/01 05:02:10;;;;;;;16.80;14.52;;;;;;;;;;5076589;28;20009;-69
2021/11/01 05:04:37;;;;;;;17.08;13.60;;;;;;;;;;5072672;28;20082;-69
2021/11/01 05:07:04;;;;;;;14.73;12.95;;;;;;;;;;5061932;28;20228;-68
2021/11/01 05:09:35;;;;;;;15.95;13.80;;;;;;;;;;5058006;28;20502;-69
2021/11/01 05:12:10;;;;;;;18.08;13.88;;;;;;;;;;5086603;28;20034;-69
2021/11/01 05:19:44;;;;;;;15.02;12.50;;;;;;;;;;5073924;28;20033;-69
2021/11/01 05:24:50;;;;;;;14.20;11.95;;;;;;;;;;5071793;28;20028;-67
2021/11/01 05:27:45;;;;;;;15.98;12.45;;;;;;;;;;5052184;28;20133;-67
2021/11/01 05:30:06;;;;;;;15.77;13.13;;;;;;;;;;5073312;28;20043;-68
2021/11/01 05:32:32;;;;;;;14.70;12.30;;;;;;;;;;5079340;28;20464;-68
2021/11/01 05:34:58;;;;;;;14.07;12.35;;;;;;;;;;5045958;28;20024;-68
2021/11/01 05:37:23;;;;;;;15.13;13.40;;;;;;;;;;5071772;28;20040;-67
2021/11/01 05:39:49;;;;;;;15.93;12.77;;;;;;;;;;5072393;28;20025;-68
2021/11/01 05:42:15;;;;;;;15.65;12.77;;;;;;;;;;5072293;28;20103;-68
2021/11/01 05:44:40;;;;;;;18.50;13.27;;;;;;;;;;5069381;28;20116;-69
2021/11/01 05:47:06;;;;;;;14.15;12.60;;;;;;;;;;5054981;28;20078;-68
2021/11/01 05:49:32;;;;;;;18.25;12.60;;;;;;;;;;5072234;28;20032;-68
2021/11/01 05:51:57;;;;;;;13.68;11.38;;;;;;;;;;5069663;28;20059;-68
2021/11/01 05:54:26;;;;;;;13.95;11.38;;;;;;;;;;5064737;28;20016;-67
2021/11/01 05:57:07;;;;;;;12.93;11.13;;;;;;;;;;5069913;28;20033;-67
2021/11/01 06:00:03;;;;;;;14.15;11.05;;;;;;;;;;5052269;28;20024;-68
2021/11/01 06:10:11;;;;;;;17.85;13.73;;;;;;;;;;5063579;28;20029;-68
2021/11/01 06:15:37;;;;;;;28.60;13.90;;;;;;;;;;4989587;28;20050;-69
2021/11/01 06:18:02;;;;;;;13.95;12.45;;;;;;;;;;4989291;28;20042;-68
2021/11/01 06:20:27;;;;;;;16.35;13.20;;;;;;;;;;4971977;28;20066;-68
2021/11/01 06:22:53;;;;;;;13.43;11.50;;;;;;;;;;4982469;28;20133;-67
2021/11/01 06:25:19;;;;;;;15.57;11.80;;;;;;;;;;4985084;28;20034;-68
2021/11/01 06:27:44;;;;;;;13.98;11.65;;;;;;;;;;4985303;28;20464;-67
2021/11/01 06:30:26;;;;;;;12.85;11.30;;;;;;;;;;4999543;28;20045;-68
2021/11/01 06:43:16;;;;;;;14.48;12.35;;;;;;;;;;5013338;28;20034;-68
2021/11/01 07:16:06;;;;;;;14.20;11.98;;;;;;;;;;5032594;28;20040;-69
2021/11/01 07:18:48;;;;;;;15.75;13.13;;;;;;;;;;5061964;28;20033;-69
2021/11/01 07:21:39;;;;;;;17.30;14.40;;;;;;;;;;5031437;28;20033;-69
2021/11/01 08:34:19;;;;;;;20.17;17.35;;;;;;;;;;5076076;28;20028;-69
2021/11/01 08:48:11;;;;;;;18.75;14.52;;;;;;;;;;5025507;28;20049;-68
2021/11/01 09:07:20;;;;;;;14.52;10.10;;;;;;;;;;5019425;28;20113;-68
2021/11/01 09:23:13;;;;;;;9.05;7.07;;;;;;;;;;5106834;28;20028;-68
2021/11/01 09:25:47;;;;;;;7.47;6.60;;;;;;;;;;5092844;28;20052;-68
2021/11/01 09:36:31;;;;;;;8.38;6.97;;;;;;;;;;5072504;28;20055;-68
2021/11/01 09:41:22;;;;;;;7.05;5.90;;;;;;;;;;5065806;28;20450;-68
2021/11/01 09:43:51;;;;;;;7.28;5.88;;;;;;;;;;5071837;28;20032;-67
2021/11/01 09:46:16;;;;;;;7.20;6.50;;;;;;;;;;5072310;28;20385;-67
2021/11/01 09:48:42;;;;;;;7.20;6.07;;;;;;;;;;5073970;28;20024;-69
2021/11/01 09:51:08;;;;;;;5.55;4.80;;;;;;;;;;5071144;28;20425;-68
2021/11/01 09:53:40;;;;;;;6.13;5.28;;;;;;;;;;5089551;28;20481;-67
2021/11/01 09:56:18;;;;;;;6.13;5.30;;;;;;;;;;5056369;28;20081;-68
2021/11/01 10:01:27;;;;;;;7.30;5.40;;;;;;;;;;5056900;28;20500;-68
2021/11/01 10:03:52;;;;;;;6.90;5.35;;;;;;;;;;5062957;28;20024;-68
2021/11/01 10:06:21;;;;;;;7.03;5.25;;;;;;;;;;5087954;28;20038;-68
2021/11/01 10:08:50;;;;;;;5.75;5.25;;;;;;;;;;5059500;28;20043;-68
2021/11/01 10:11:17;;;;;;;5.85;5.25;;;;;;;;;;5071526;28;20025;-68
2021/11/01 10:13:42;;;;;;;6.05;5.40;;;;;;;;;;5078674;28;20495;-68
2021/11/01 10:18:52;;;;;;;6.38;5.65;;;;;;;;;;5071723;28;20042;-67
2021/11/01 10:21:18;;;;;;;5.70;5.10;;;;;;;;;;5071817;28;20392;-67
2021/11/01 10:23:47;;;;;;;6.43;5.25;;;;;;;;;;5070349;28;20028;-68
2021/11/01 10:26:17;;;;;;;6.72;5.50;;;;;;;;;;5084738;28;20379;-68
2021/11/01 10:28:43;;;;;;;8.65;5.93;;;;;;;;;;5057148;28;20107;-68
2021/11/01 10:31:11;;;;;;;6.20;5.60;;;;;;;;;;5086525;28;20048;-68
2021/11/01 10:33:43;;;;;;;5.80;5.20;;;;;;;;;;5070598;28;20120;-68
2021/11/01 10:36:09;;;;;;;5.28;4.78;;;;;;;;;;5084665;28;20062;-68
2021/11/01 10:38:40;;;;;;;5.72;5.13;;;;;;;;;;5071848;28;20052;-68
2021/11/01 10:41:23;;;;;;;5.70;5.05;;;;;;;;;;5038600;28;20536;-68
2021/11/01 10:47:10;;;;;;;5.25;4.75;;;;;;;;;;5085449;28;20024;-68
2021/11/01 11:13:56;;;;;;;4.63;3.88;;;;;;;;;;5076260;28;20097;-71
2021/11/01 11:16:46;;;;;;;4.65;4.00;;;;;;;;;;5072025;28;20455;-71
2021/11/01 11:27:02;;;;;;;4.93;4.43;;;;;;;;;;5074581;28;20691;-71
2021/11/01 11:32:27;;;;;;;5.47;4.05;;;;;;;;;;5078685;28;20069;-71
2021/11/01 11:48:35;;;;;;;2.67;2.28;;;;;;;;;;5092013;28;20038;-71
2021/11/01 11:51:07;;;;;;;3.45;2.33;;;;;;;;;;5094655;28;20016;-71
2021/11/01 11:53:33;;;;;;;3.83;2.20;;;;;;;;;;5103338;28;20028;-70
2021/11/01 11:56:11;;;;;;;3.22;2.78;;;;;;;;;;5074927;28;20028;-71
2021/11/01 11:58:38;;;;;;;2.33;2.13;;;;;;;;;;5081884;28;20103;-71
2021/11/01 12:01:24;;;;;;;2.47;1.80;;;;;;;;;;5076152;28;20012;-71
2021/11/01 12:03:49;;;;;;;3.70;2.13;;;;;;;;;;5068718;28;20168;-71
2021/11/01 12:06:18;;;;;;;2.10;1.83;;;;;;;;;;5077785;28;20427;-71
2021/11/01 12:08:49;;;;;;;3.20;1.88;;;;;;;;;;5102808;28;20503;-70
2021/11/01 12:11:20;;;;;;;2.63;1.50;;;;;;;;;;5091190;28;20023;-70
2021/11/01 12:19:07;;;;;;;3.00;1.75;;;;;;;;;;5093842;28;20093;-70
2021/11/01 12:21:34;;;;;;;1.98;1.60;;;;;;;;;;5093600;28;20024;-71
2021/11/01 12:24:00;;;;;;;3.83;2.85;;;;;;;;;;5079766;28;20109;-71
2021/11/01 12:26:25;;;;;;;1.83;1.73;;;;;;;;;;5099446;28;20480;-71
2021/11/01 12:28:52;;;;;;;1.58;1.48;;;;;;;;;;5082420;28;20460;-71
2021/11/01 12:31:18;;;;;;;1.27;1.10;;;;;;;;;;5093097;28;20032;-71
2021/11/01 12:33:53;;;;;;;2.17;1.30;;;;;;;;;;5076810;28;20385;-71
2021/11/01 12:36:28;;;;;;;2.25;1.20;;;;;;;;;;5093805;28;20025;-71
2021/11/01 12:39:04;;;;;;;;;;;;;;;;;;5092502;28;20492;-71
2021/11/01 12:41:58;;;;;;;1.23;1.00;;;;;;;;;;5091016;28;19966;-71
2021/11/01 12:45:11;;;;;;;1.73;1.50;;;;;;;;;;5077203;28;20514;-71
2021/11/01 12:57:57;;;;;;;2.38;1.45;;;;;;;;;;5084522;28;20479;-71
2021/11/01 13:00:22;;;;;;;1.52;1.25;;;;;;;;;;5074886;28;20017;-71
2021/11/01 13:02:48;;;;;;;2.92;1.73;;;;;;;;;;5090460;28;20028;-71
2021/11/01 13:05:20;;;;;;;3.75;1.45;;;;;;;;;;5072248;28;20476;-71
2021/11/01 13:07:54;;;;;;;3.35;1.75;;;;;;;;;;5093132;28;20049;-71
2021/11/01 13:10:24;;;;;;;2.63;1.63;;;;;;;;;;5077191;28;20020;-71
2021/11/01 13:20:25;;;;;;;2.53;1.90;;;;;;;;;;5093323;28;20441;-70
2021/11/01 13:22:54;;;;;;;4.00;1.85;;;;;;;;;;5073779;28;20020;-70
2021/11/01 13:25:25;;;;;;;3.80;2.22;;;;;;;;;;5074851;28;20464;-70
2021/11/01 13:38:50;;;;;;;4.35;2.75;;;;;;;;;;5010353;28;20037;-71
2021/11/01 13:41:20;;;;;;;4.28;2.70;;;;;;;;;;5010444;28;20129;-71
2021/11/01 13:43:45;;;;;;;4.45;3.10;;;;;;;;;;5004944;28;20048;-71
2021/11/01 13:46:14;;;;;;;4.50;3.60;;;;;;;;;;5004277;28;20079;-71
2021/11/01 13:48:40;;;;;;;5.13;3.80;;;;;;;;;;5009567;28;20105;-70
2021/11/01 13:51:08;;;;;;;6.75;4.53;;;;;;;;;;5010356;28;20673;-70
2021/11/01 13:53:41;;;;;;;5.07;3.38;;;;;;;;;;5020175;28;20080;-70
2021/11/01 13:56:16;;;;;;;3.70;2.85;;;;;;;;;;5009634;28;20030;-70
2021/11/01 13:58:52;;;;;;;4.85;3.13;;;;;;;;;;5005557;28;20076;-70
2021/11/01 14:01:29;;;;;;;3.75;2.92;;;;;;;;;;5010065;28;20037;-70
2021/11/01 14:35:14;;;;;;;5.25;3.13;;;;;;;;;;5087065;28;20071;-71
2021/11/01 15:15:36;;;;;;;2.17;1.63;;;;;;;;;;5091497;28;20073;-70
2021/11/01 15:18:16;;;;;;;3.30;1.83;;;;;;;;;;5092209;28;20024;-70
2021/11/01 15:20:56;;;;;;;2.55;1.90;;;;;;;;;;5094677;28;20472;-70
2021/11/01 15:42:47;;;;;;;3.97;2.00;;;;;;;;;;4949119;28;20590;-69
2021/11/01 16:18:10;;;;;;;3.65;1.20;;;;;;;;;;5057099;28;20479;-70
2021/11/01 16:20:35;;;;;;;1.80;1.35;;;;;;;;;;5066315;28;20030;-70
2021/11/01 16:26:00;;;;;;;3.90;1.58;;;;;;;;;;5045625;28;20062;-69
2021/11/01 16:28:28;;;;;;;5.28;1.88;;;;;;;;;;5053134;28;20032;-70
2021/11/01 16:33:45;;;;;;;3.10;2.17;;;;;;;;;;5089373;28;20058;-66
2021/11/01 16:36:25;;;;;;;3.58;2.60;;;;;;;;;;5087662;28;20486;-67
2021/11/01 16:38:53;;;;;;;4.60;2.20;;;;;;;;;;5071465;28;20396;-66
2021/11/01 16:41:22;;;;;;;3.70;2.67;;;;;;;;;;5095956;28;20027;-67
2021/11/01 16:43:50;;;;;;;3.35;2.53;;;;;;;;;;5082382;28;20036;-67
2021/11/01 16:46:15;;;;;;;3.15;1.92;;;;;;;;;;5092500;28;20024;-67
2021/11/01 16:48:45;;;;;;;3.78;2.30;;;;;;;;;;5085719;28;20032;-67
2021/11/01 16:51:11;;;;;;;3.80;1.88;;;;;;;;;;5087135;28;20023;-67
2021/11/01 16:53:39;;;;;;;3.47;2.00;;;;;;;;;;5087273;28;20400;-67
2021/11/01 16:56:34;;;;;;;4.25;2.47;;;;;;;;;;5080466;28;20530;-66
2021/11/01 16:59:07;;;;;;;3.45;2.30;;;;;;;;;;5076037;28;20032;-67
2021/11/01 17:01:32;;;;;;;3.13;2.13;;;;;;;;;;5081410;28;20028;-66
2021/11/01 17:04:04;;;;;;;3.10;2.40;;;;;;;;;;5081137;28;20020;-66
2021/11/01 17:06:42;;;;;;;3.28;2.50;;;;;;;;;;5066902;28;20433;-66
2021/11/01 17:22:48;;;;;;;7.30;5.20;;;;;;;;;;5086488;28;20408;-67
2021/11/01 17:25:23;;;;;;;5.30;3.80;;;;;;;;;;5091507;28;20023;-68
2021/11/01 17:38:57;;;;;;;4.95;4.40;;;;;;;;;;5087531;28;20024;-67
2021/11/01 18:36:54;;;;;;;4.30;3.60;;;;;;;;;;5096066;28;20038;-67
2021/11/01 18:42:19;;;;;;;4.07;3.67;;;;;;;;;;5096374;28;20035;-67
2021/11/01 18:45:03;;;;;;;6.07;4.28;;;;;;;;;;5081683;28;20016;-68
2021/11/01 18:53:07;;;;;;;3.97;2.60;;;;;;;;;;5093453;28;20430;-67
2021/11/01 18:55:32;;;;;;;5.13;2.33;;;;;;;;;;5092904;28;20774;-66
2021/11/01 18:57:58;;;;;;;4.80;2.72;;;;;;;;;;5090097;28;20019;-66
2021/11/01 19:00:24;;;;;;;4.78;3.17;;;;;;;;;;5081046;28;20027;-66
2021/11/01 19:02:51;;;;;;;4.40;3.40;;;;;;;;;;5093394;28;20019;-66
2021/11/01 19:05:26;;;;;;;5.60;3.10;;;;;;;;;;5081928;28;20028;-66
2021/11/01 19:08:13;;;;;;;3.50;1.92;;;;;;;;;;5084572;28;20039;-67
2021/11/01 19:13:48;;;;;;;6.15;3.83;;;;;;;;;;5084610;28;20051;-67
2021/11/01 19:17:19;;;;;;;3.95;2.63;;;;;;;;;;5095287;28;20042;-67
2021/11/01 20:05:52;;;;;;;8.85;3.80;;;;;;;;;;5071923;28;20488;-68
2021/11/01 20:08:49;;;;;;;6.60;3.92;;;;;;;;;;5073508;28;20017;-68
2021/11/01 21:25:23;;;;;;;3.88;2.80;;;;;;;;;;5093449;28;20564;-67
2021/11/01 21:27:49;;;;;;;5.10;2.00;;;;;;;;;;5088989;28;20399;-67
2021/11/01 21:30:15;;;;;;;4.20;2.20;;;;;;;;;;5072688;28;20480;-67
2021/11/01 21:32:40;;;;;;;2.72;1.95;;;;;;;;;;5073346;28;20069;-67
2021/11/01 21:35:11;;;;;;;3.03;1.95;;;;;;;;;;5074998;28;20020;-67
2021/11/01 21:37:36;;;;;;;4.43;2.83;;;;;;;;;;5078094;28;20020;-68
2021/11/01 21:40:03;;;;;;;3.38;1.80;;;;;;;;;;5095134;28;20032;-68
2021/11/01 21:42:28;;;;;;;4.68;2.03;;;;;;;;;;5073885;28;20027;-68
2021/11/01 21:44:54;;;;;;;4.25;2.50;;;;;;;;;;5092213;28;20020;-68
2021/11/01 21:47:19;;;;;;;3.30;2.10;;;;;;;;;;5100161;28;20032;-68
2021/11/01 21:49:47;;;;;;;4.40;1.80;;;;;;;;;;5073453;28;20448;-68
2021/11/01 21:52:14;;;;;;;5.18;2.00;;;;;;;;;;5091141;28;20122;-68
2021/11/01 21:54:51;;;;;;;3.28;1.40;;;;;;;;;;5091918;28;20025;-68
2021/11/01 22:26:23;;;;;;;3.03;1.10;;;;;;;;;;5071563;28;20024;-68
2021/11/01 22:34:35;;;;;;;4.13;0.95;;;;;;;;;;5078485;28;20052;-67
2021/11/01 22:58:24;;;;;;;1.58;0.70;;;;;;;;;;5074903;28;20111;-68
2021/11/01 23:00:57;;;;;;;3.20;0.80;;;;;;;;;;5092269;28;20107;-67
2021/11/01 23:06:41;;;;;;;2.08;0.88;;;;;;;;;;5080935;28;20133;-67
2021/11/01 23:33:43;;;;;;;1.95;0.82;;;;;;;;;;5090083;28;20074;-67
2021/11/01 23:36:08;;;;;;;3.40;1.08;;;;;;;;;;5094549;28;20115;-67
2021/11/01 23:38:34;;;;;;;1.98;0.90;;;;;;;;;;5076920;28;20399;-67
2021/11/01 23:40:59;;;;;;;2.60;0.88;;;;;;;;;;5094465;28;20036;-67
2021/11/01 23:43:25;;;;;;;2.17;1.38;;;;;;;;;;5094799;28;20032;-67
2021/11/01 23:45:50;;;;;;;2.08;0.82;;;;;;;;;;5093913;28;20031;-67
2021/11/01 23:48:17;;;;;;;2.80;1.15;;;;;;;;;;5076069;28;20028;-67
2021/11/01 23:50:44;;;;;;;1.77;0.80;;;;;;;;;;5105164;28;20051;-67
2021/11/01 23:53:11;;;;;;;2.70;0.70;;;;;;;;;;5079214;28;20054;-67
2021/11/01 23:55:37;;;;;;;2.10;0.73;;;;;;;;;;5094329;28;20050;-67
2021/11/01 23:58:03;;;;;;;2.80;1.00;;;;;;;;;;5090734;28;20292;-68
